createdAt,value
2024-04-24T00:01:53.256Z,10.34
2024-04-24T00:04:20.810Z,10.34
2024-04-24T00:06:48.227Z,10.34
2024-04-24T00:09:15.623Z,10.35
2024-04-24T00:11:43.264Z,10.37
2024-04-24T00:14:10.978Z,10.38
2024-04-24T00:16:38.633Z,10.38
2024-04-24T00:19:06.408Z,10.40
2024-04-24T00:21:33.892Z,10.40
2024-04-24T00:24:01.442Z,10.41
2024-04-24T00:26:28.865Z,10.41
2024-04-24T00:28:56.718Z,10.41
2024-04-24T00:31:24.262Z,10.46
2024-04-24T00:33:51.820Z,10.50
2024-04-24T00:36:19.517Z,10.53
2024-04-24T00:38:46.968Z,10.57
2024-04-24T00:41:14.686Z,10.64
2024-04-24T00:43:42.309Z,10.67
2024-04-24T00:46:11.979Z,10.71
2024-04-24T00:48:41.324Z,10.79
2024-04-24T00:51:10.305Z,10.87
2024-04-24T00:53:38.184Z,10.95
2024-04-24T00:56:06.665Z,10.99
2024-04-24T00:58:37.877Z,10.99
2024-04-24T01:01:06.375Z,10.92
2024-04-24T01:03:33.972Z,10.87
2024-04-24T01:06:01.408Z,10.87
2024-04-24T01:08:29.389Z,10.87
2024-04-24T01:11:00.596Z,10.84
2024-04-24T01:13:28.268Z,10.81
2024-04-24T01:16:10.448Z,10.76
2024-04-24T01:18:41.076Z,10.71
2024-04-24T01:21:17.041Z,10.66
2024-04-24T01:24:05.979Z,10.63
2024-04-24T01:26:46.669Z,10.58
2024-04-24T01:29:17.806Z,10.52
2024-04-24T01:31:53.183Z,10.46
2024-04-24T01:34:21.587Z,10.43
2024-04-24T01:37:01.608Z,10.41
2024-04-24T01:39:32.525Z,10.37
2024-04-24T01:42:00.454Z,10.35
2024-04-24T01:44:27.870Z,10.32
2024-04-24T01:46:55.299Z,10.28
2024-04-24T01:49:22.655Z,10.26
2024-04-24T01:51:50.250Z,10.24
2024-04-24T01:54:17.899Z,10.19
2024-04-24T01:56:45.317Z,10.17
2024-04-24T01:59:12.920Z,10.16
2024-04-24T02:01:40.577Z,10.17
2024-04-24T02:04:08.289Z,10.14
2024-04-24T02:06:35.740Z,10.16
2024-04-24T02:09:03.391Z,10.16
2024-04-24T02:11:35.345Z,10.14
2024-04-24T02:14:02.170Z,10.12
2024-04-24T02:16:29.983Z,10.13
2024-04-24T02:18:57.871Z,10.13
2024-04-24T02:21:25.608Z,10.11
2024-04-24T02:23:53.196Z,10.10
2024-04-24T02:26:21.014Z,10.12
2024-04-24T02:28:48.705Z,10.10
2024-04-24T02:31:16.808Z,10.10
2024-04-24T02:33:44.311Z,10.10
2024-04-24T02:36:12.054Z,10.10
2024-04-24T02:38:39.906Z,10.11
2024-04-24T02:41:07.461Z,10.13
2024-04-24T02:43:35.340Z,10.14
2024-04-24T02:46:03.039Z,10.18
2024-04-24T02:48:30.634Z,10.23
2024-04-24T02:50:58.190Z,10.27
2024-04-24T02:53:25.877Z,10.31
2024-04-24T02:55:53.516Z,10.38
2024-04-24T02:58:21.101Z,10.46
2024-04-24T03:00:48.817Z,10.52
2024-04-24T03:03:16.558Z,10.59
2024-04-24T03:05:44.351Z,10.65
2024-04-24T03:08:11.872Z,10.74
2024-04-24T03:10:39.551Z,10.85
2024-04-24T03:13:08.871Z,10.94
2024-04-24T03:15:36.383Z,10.99
2024-04-24T03:18:04.471Z,11.02
2024-04-24T03:20:32.129Z,11.05
2024-04-24T03:22:59.823Z,11.07
2024-04-24T03:25:27.503Z,11.02
2024-04-24T03:27:55.200Z,10.99
2024-04-24T03:30:22.651Z,10.97
2024-04-24T03:32:50.186Z,10.94
2024-04-24T03:35:17.914Z,10.91
2024-04-24T03:37:45.790Z,10.89
2024-04-24T03:40:13.422Z,10.86
2024-04-24T03:42:40.847Z,10.83
2024-04-24T03:45:08.648Z,10.79
2024-04-24T03:47:36.649Z,10.77
2024-04-24T03:50:05.549Z,10.76
2024-04-24T03:52:33.171Z,10.75
2024-04-24T03:55:00.716Z,10.72
2024-04-24T03:57:28.356Z,10.71
2024-04-24T03:59:56.191Z,10.69
2024-04-24T04:02:23.949Z,10.67
2024-04-24T04:04:51.625Z,10.66
2024-04-24T04:07:19.054Z,10.65
2024-04-24T04:09:46.411Z,10.64
2024-04-24T04:12:14.136Z,10.62
2024-04-24T04:14:41.633Z,10.59
2024-04-24T04:17:09.617Z,10.59
2024-04-24T04:19:37.295Z,10.56
2024-04-24T04:22:04.893Z,10.55
2024-04-24T04:24:32.381Z,10.56
2024-04-24T04:26:59.836Z,10.55
2024-04-24T04:29:27.410Z,10.53
2024-04-24T04:31:54.991Z,10.53
2024-04-24T04:34:22.661Z,10.54
2024-04-24T04:36:50.285Z,10.54
2024-04-24T04:39:17.836Z,10.55
2024-04-24T04:41:45.511Z,10.55
2024-04-24T04:44:12.944Z,10.56
2024-04-24T04:46:40.517Z,10.57
2024-04-24T04:49:08.191Z,10.58
2024-04-24T04:51:36.629Z,10.62
2024-04-24T04:54:04.240Z,10.68
2024-04-24T04:56:31.749Z,10.74
2024-04-24T04:58:59.179Z,10.81
2024-04-24T05:01:26.839Z,10.90
2024-04-24T05:03:55.648Z,10.99
2024-04-24T05:06:23.351Z,11.07
2024-04-24T05:08:53.134Z,11.15
2024-04-24T05:11:20.238Z,11.22
2024-04-24T05:13:47.807Z,11.33
2024-04-24T05:16:15.386Z,11.43
2024-04-24T05:18:43.043Z,11.51
2024-04-24T05:21:10.816Z,11.58
2024-04-24T05:23:40.348Z,11.66
2024-04-24T05:26:26.116Z,11.71
2024-04-24T05:29:05.274Z,11.81
2024-04-24T05:31:38.598Z,11.86
2024-04-24T05:34:09.715Z,11.90
2024-04-24T05:36:39.487Z,11.93
2024-04-24T05:39:06.916Z,11.93
2024-04-24T05:41:34.711Z,11.95
2024-04-24T05:44:02.384Z,11.93
2024-04-24T05:46:31.743Z,11.93
2024-04-24T05:49:01.765Z,11.93
2024-04-24T05:51:29.341Z,11.89
2024-04-24T05:53:58.772Z,11.90
2024-04-24T05:56:26.613Z,11.89
2024-04-24T05:58:54.223Z,11.89
2024-04-24T06:01:21.825Z,11.89
2024-04-24T06:03:49.213Z,11.92
2024-04-24T06:06:16.673Z,11.93
2024-04-24T06:08:44.160Z,11.94
2024-04-24T06:11:11.857Z,11.94
2024-04-24T06:13:39.268Z,11.98
2024-04-24T06:16:07.104Z,12.02
2024-04-24T06:18:34.628Z,12.03
2024-04-24T06:21:02.751Z,12.07
2024-04-24T06:23:30.488Z,12.07
2024-04-24T06:25:58.131Z,12.11
2024-04-24T06:28:25.543Z,12.14
2024-04-24T06:30:52.999Z,12.18
2024-04-24T06:33:20.819Z,12.23
2024-04-24T06:35:48.567Z,12.35
2024-04-24T06:38:16.345Z,12.44
2024-04-24T06:40:43.917Z,12.52
2024-04-24T06:43:11.546Z,12.59
2024-04-24T06:45:38.908Z,12.66
2024-04-24T06:48:07.101Z,12.78
2024-04-24T06:50:34.915Z,12.91
2024-04-24T06:53:02.433Z,13.03
2024-04-24T06:55:31.012Z,13.14
2024-04-24T06:58:00.763Z,13.25
2024-04-24T07:00:29.884Z,13.36
2024-04-24T07:02:57.747Z,13.51
2024-04-24T07:05:25.274Z,13.66
2024-04-24T07:07:52.821Z,13.79
2024-04-24T07:10:20.219Z,13.95
2024-04-24T07:12:49.347Z,14.09
2024-04-24T07:15:17.165Z,14.23
2024-04-24T07:17:45.556Z,14.42
2024-04-24T07:20:13.392Z,14.64
2024-04-24T07:22:40.864Z,14.77
2024-04-24T07:25:08.220Z,14.89
2024-04-24T07:27:35.846Z,14.92
2024-04-24T07:30:05.978Z,14.99
2024-04-24T07:32:33.507Z,15.16
2024-04-24T07:35:01.202Z,15.15
2024-04-24T07:37:28.933Z,15.08
2024-04-24T07:39:56.678Z,15.03
2024-04-24T07:42:24.254Z,15.02
2024-04-24T07:44:51.773Z,15.08
2024-04-24T07:47:19.334Z,15.16
2024-04-24T07:49:46.897Z,15.30
2024-04-24T07:52:14.699Z,15.43
2024-04-24T07:54:42.831Z,15.44
2024-04-24T07:57:10.519Z,15.45
2024-04-24T07:59:37.909Z,15.55
2024-04-24T08:02:05.540Z,15.61
2024-04-24T08:04:33.133Z,15.68
2024-04-24T08:07:00.818Z,15.81
2024-04-24T08:09:28.367Z,15.84
2024-04-24T08:11:56.012Z,15.79
2024-04-24T08:14:23.703Z,15.75
2024-04-24T08:16:51.318Z,15.81
2024-04-24T08:19:18.981Z,15.94
2024-04-24T08:21:46.418Z,16.05
2024-04-24T08:24:14.103Z,16.08
2024-04-24T08:26:41.486Z,16.00
2024-04-24T08:29:09.072Z,16.07
2024-04-24T08:31:36.622Z,16.19
2024-04-24T08:34:04.351Z,16.23
2024-04-24T08:36:31.823Z,16.30
2024-04-24T08:39:00.288Z,16.31
2024-04-24T08:41:28.221Z,16.27
2024-04-24T08:43:56.920Z,16.25
2024-04-24T08:46:27.856Z,16.21
2024-04-24T08:48:56.243Z,16.24
2024-04-24T08:51:24.870Z,16.21
2024-04-24T08:53:55.691Z,16.21
2024-04-24T08:56:27.290Z,16.33
2024-04-24T08:58:57.473Z,16.48
2024-04-24T09:01:26.746Z,16.58
2024-04-24T09:03:58.114Z,16.75
2024-04-24T09:06:27.226Z,16.89
2024-04-24T09:08:55.112Z,16.94
2024-04-24T09:11:25.132Z,16.96
2024-04-24T09:13:54.204Z,17.02
2024-04-24T09:16:22.453Z,17.02
2024-04-24T09:19:03.431Z,16.99
2024-04-24T09:21:31.989Z,17.07
2024-04-24T09:23:59.646Z,17.24
2024-04-24T09:26:27.679Z,17.24
2024-04-24T09:28:56.036Z,17.24
2024-04-24T09:31:24.088Z,17.20
2024-04-24T09:33:51.963Z,17.23
2024-04-24T09:36:20.005Z,17.26
2024-04-24T09:38:47.762Z,17.33
2024-04-24T09:41:15.808Z,17.47
2024-04-24T09:43:43.616Z,17.64
2024-04-24T09:46:12.717Z,17.79
2024-04-24T09:48:41.080Z,18.01
2024-04-24T09:51:10.347Z,18.12
2024-04-24T09:53:37.959Z,18.03
2024-04-24T09:56:18.022Z,18.01
2024-04-24T09:58:49.129Z,18.02
2024-04-24T10:01:20.622Z,17.90
2024-04-24T10:03:49.887Z,18.05
2024-04-24T10:06:20.986Z,18.29
2024-04-24T10:08:50.778Z,18.56
2024-04-24T10:11:20.897Z,18.65
2024-04-24T10:13:49.630Z,18.62
2024-04-24T10:16:17.409Z,18.56
2024-04-24T10:18:45.854Z,18.47
2024-04-24T10:21:13.566Z,18.45
2024-04-24T10:23:42.452Z,18.41
2024-04-24T10:26:10.745Z,18.34
2024-04-24T10:28:39.426Z,18.22
2024-04-24T10:31:07.639Z,18.22
2024-04-24T10:33:36.504Z,18.35
2024-04-24T10:36:04.957Z,18.32
2024-04-24T10:38:33.522Z,18.30
2024-04-24T10:41:01.327Z,18.40
2024-04-24T10:43:30.904Z,18.59
2024-04-24T10:46:00.191Z,18.68
2024-04-24T10:48:48.017Z,18.51
2024-04-24T10:51:18.982Z,18.47
2024-04-24T10:53:56.006Z,18.28
2024-04-24T10:56:18.213Z,18.01
2024-04-24T10:58:53.419Z,17.77
2024-04-24T11:01:24.959Z,17.65
2024-04-24T11:03:52.066Z,17.58
2024-04-24T11:06:19.829Z,17.69
2024-04-24T11:08:51.381Z,17.64
2024-04-24T11:11:23.124Z,17.50
2024-04-24T11:14:04.431Z,17.32
2024-04-24T11:16:32.312Z,17.21
2024-04-24T11:18:59.965Z,17.17
2024-04-24T11:21:27.997Z,17.10
2024-04-24T11:23:56.752Z,17.05
2024-04-24T11:26:29.287Z,17.03
2024-04-24T11:29:05.712Z,17.16
2024-04-24T11:31:42.844Z,17.34
2024-04-24T11:34:11.630Z,17.45
2024-04-24T11:36:40.328Z,17.53
2024-04-24T11:39:08.489Z,17.54
2024-04-24T11:41:38.871Z,17.49
2024-04-24T11:44:07.106Z,17.61
2024-04-24T11:46:35.907Z,17.82
2024-04-24T11:49:06.597Z,18.02
2024-04-24T11:51:37.207Z,18.20
2024-04-24T11:54:05.111Z,18.41
2024-04-24T11:56:37.574Z,18.57
2024-04-24T11:59:05.342Z,18.46
2024-04-24T12:01:34.622Z,18.42
2024-04-24T12:04:04.250Z,18.55
2024-04-24T12:06:42.467Z,18.65
2024-04-24T12:09:15.142Z,18.81
2024-04-24T12:11:44.078Z,19.05
2024-04-24T12:14:16.828Z,19.14
2024-04-24T12:16:44.533Z,19.32
2024-04-24T12:19:12.930Z,19.30
2024-04-24T12:21:40.598Z,19.30
2024-04-24T12:24:08.262Z,19.33
2024-04-24T12:26:35.817Z,19.25
2024-04-24T12:29:03.309Z,19.20
2024-04-24T12:31:30.955Z,19.25
2024-04-24T12:33:58.715Z,19.36
2024-04-24T12:36:26.478Z,19.24
2024-04-24T12:38:54.215Z,19.13
2024-04-24T12:41:21.919Z,19.00
2024-04-24T12:43:49.698Z,18.87
2024-04-24T12:46:17.319Z,18.86
2024-04-24T12:48:45.179Z,18.73
2024-04-24T12:51:12.883Z,18.70
2024-04-24T12:53:40.457Z,18.74
2024-04-24T12:56:08.373Z,18.85
2024-04-24T12:58:36.399Z,18.79
2024-04-24T13:01:04.209Z,18.81
2024-04-24T13:03:32.043Z,18.80
2024-04-24T13:05:59.734Z,18.69
2024-04-24T13:08:27.385Z,18.72
2024-04-24T13:10:55.242Z,18.70
2024-04-24T13:13:22.928Z,18.65
2024-04-24T13:15:50.334Z,18.73
2024-04-24T13:18:20.644Z,18.84
2024-04-24T13:20:47.736Z,18.82
2024-04-24T13:23:15.617Z,18.81
2024-04-24T13:25:47.604Z,18.79
2024-04-24T13:28:15.513Z,18.90
2024-04-24T13:30:43.996Z,18.87
2024-04-24T13:33:11.559Z,18.76
2024-04-24T13:35:39.384Z,18.75
2024-04-24T13:38:07.483Z,18.65
2024-04-24T13:40:34.988Z,18.47
2024-04-24T13:43:02.602Z,18.29
2024-04-24T13:45:30.870Z,18.10
2024-04-24T13:47:58.777Z,18.01
2024-04-24T13:50:26.347Z,17.95
2024-04-24T13:52:54.064Z,17.93
2024-04-24T13:55:21.658Z,17.93
2024-04-24T13:57:49.269Z,17.97
2024-04-24T14:00:18.056Z,17.93
2024-04-24T14:02:47.669Z,18.00
2024-04-24T14:05:15.388Z,18.03
2024-04-24T14:07:42.875Z,18.03
2024-04-24T14:10:10.529Z,17.95
2024-04-24T14:12:37.937Z,17.83
2024-04-24T14:15:07.462Z,17.77
2024-04-24T14:17:37.048Z,17.70
2024-04-24T14:20:05.963Z,17.64
2024-04-24T14:22:33.763Z,17.59
2024-04-24T14:25:01.190Z,17.55
2024-04-24T14:27:28.842Z,17.62
2024-04-24T14:29:56.392Z,17.64
2024-04-24T14:32:24.199Z,17.73
2024-04-24T14:34:51.666Z,17.89
2024-04-24T14:37:19.206Z,18.03
2024-04-24T14:39:46.802Z,18.13
2024-04-24T14:42:14.455Z,18.13
2024-04-24T14:44:41.859Z,18.07
2024-04-24T14:47:09.550Z,17.98
2024-04-24T14:49:37.347Z,17.84
2024-04-24T14:52:05.303Z,17.79
2024-04-24T14:54:32.910Z,17.73
2024-04-24T14:57:00.471Z,17.64
2024-04-24T14:59:28.167Z,17.54
2024-04-24T15:01:55.865Z,17.39
2024-04-24T15:04:23.540Z,17.26
2024-04-24T15:07:08.755Z,17.17
2024-04-24T15:09:36.347Z,17.07
2024-04-24T15:12:04.717Z,17.03
2024-04-24T15:14:35.534Z,17.02
2024-04-24T15:17:03.167Z,17.04
2024-04-24T15:19:30.887Z,17.19
2024-04-24T15:21:59.227Z,17.38
2024-04-24T15:24:27.139Z,17.52
2024-04-24T15:26:54.774Z,17.63
2024-04-24T15:29:22.257Z,17.67
2024-04-24T15:31:49.953Z,17.71
2024-04-24T15:34:17.487Z,17.71
2024-04-24T15:36:46.264Z,17.64
2024-04-24T15:39:13.704Z,17.54
2024-04-24T15:41:41.882Z,17.47
2024-04-24T15:44:09.584Z,17.43
2024-04-24T15:46:37.905Z,17.41
2024-04-24T15:49:05.632Z,17.31
2024-04-24T15:51:33.117Z,17.26
2024-04-24T15:54:00.760Z,17.28
2024-04-24T15:56:28.386Z,17.27
2024-04-24T15:58:55.921Z,17.37
2024-04-24T16:01:23.516Z,17.50
2024-04-24T16:03:51.226Z,17.58
2024-04-24T16:06:18.946Z,17.70
2024-04-24T16:08:46.453Z,17.78
2024-04-24T16:11:13.919Z,17.79
2024-04-24T16:13:41.895Z,17.79
2024-04-24T16:16:09.465Z,17.86
2024-04-24T16:18:43.066Z,17.88
2024-04-24T16:21:06.303Z,17.87
2024-04-24T16:23:34.075Z,17.88
2024-04-24T16:26:02.315Z,17.88
2024-04-24T16:28:30.065Z,17.85
2024-04-24T16:30:57.559Z,17.88
2024-04-24T16:33:25.081Z,17.91
2024-04-24T16:35:52.891Z,17.94
2024-04-24T16:38:21.161Z,17.89
2024-04-24T16:40:48.898Z,17.83
2024-04-24T16:43:16.644Z,17.76
2024-04-24T16:45:44.906Z,17.58
2024-04-24T16:48:14.407Z,17.34
2024-04-24T16:50:42.170Z,17.08
2024-04-24T16:53:09.634Z,16.87
2024-04-24T16:55:37.104Z,16.67
2024-04-24T16:58:04.900Z,16.54
2024-04-24T17:00:32.570Z,16.42
2024-04-24T17:03:01.457Z,16.32
2024-04-24T17:05:31.586Z,16.17
2024-04-24T17:07:59.295Z,16.01
2024-04-24T17:10:26.838Z,15.88
2024-04-24T17:12:54.490Z,15.79
2024-04-24T17:15:21.947Z,15.66
2024-04-24T17:17:49.562Z,15.56
2024-04-24T17:20:17.157Z,15.50
2024-04-24T17:22:44.790Z,15.42
2024-04-24T17:25:13.682Z,15.38
2024-04-24T17:27:42.242Z,15.33
2024-04-24T17:30:12.378Z,15.28
2024-04-24T17:32:40.309Z,15.23
2024-04-24T17:35:08.000Z,15.20
2024-04-24T17:37:35.443Z,15.15
2024-04-24T17:40:03.164Z,15.12
2024-04-24T17:42:30.578Z,15.07
2024-04-24T17:44:57.977Z,15.04
2024-04-24T17:47:26.677Z,15.03
2024-04-24T17:49:54.233Z,15.01
2024-04-24T17:52:22.462Z,14.97
2024-04-24T17:54:50.109Z,14.95
2024-04-24T17:57:17.740Z,14.92
2024-04-24T17:59:45.293Z,14.90
2024-04-24T18:02:12.860Z,14.88
2024-04-24T18:04:40.469Z,14.82
2024-04-24T18:07:07.961Z,14.78
2024-04-24T18:09:35.533Z,14.70
2024-04-24T18:12:04.118Z,14.60
2024-04-24T18:14:31.861Z,14.53
2024-04-24T18:16:59.531Z,14.45
2024-04-24T18:19:27.085Z,14.37
2024-04-24T18:21:54.799Z,14.28
2024-04-24T18:24:24.443Z,14.15
2024-04-24T18:26:51.898Z,14.07
2024-04-24T18:29:19.640Z,14.01
2024-04-24T18:31:47.255Z,13.96
2024-04-24T18:34:16.522Z,13.92
2024-04-24T18:36:44.490Z,13.90
2024-04-24T18:39:12.080Z,13.86
2024-04-24T18:41:39.600Z,13.87
2024-04-24T18:44:07.255Z,13.85
2024-04-24T18:46:34.781Z,13.81
2024-04-24T18:49:02.511Z,13.79
2024-04-24T18:51:31.941Z,13.77
2024-04-24T18:54:00.056Z,13.80
2024-04-24T18:56:27.823Z,13.82
2024-04-24T18:58:55.435Z,13.80
2024-04-24T19:01:23.307Z,13.79
2024-04-24T19:03:50.939Z,13.76
2024-04-24T19:06:18.538Z,13.72
2024-04-24T19:08:45.939Z,13.67
2024-04-24T19:11:13.497Z,13.65
2024-04-24T19:13:41.030Z,13.62
2024-04-24T19:16:08.775Z,13.59
2024-04-24T19:18:36.408Z,13.56
2024-04-24T19:21:05.727Z,13.50
2024-04-24T19:23:33.391Z,13.41
2024-04-24T19:26:01.364Z,13.35
2024-04-24T19:28:28.784Z,13.31
2024-04-24T19:30:56.359Z,13.30
2024-04-24T19:33:24.821Z,13.29
2024-04-24T19:35:53.639Z,13.26
2024-04-24T19:38:24.357Z,13.26
2024-04-24T19:40:51.838Z,13.24
2024-04-24T19:43:19.499Z,13.24
2024-04-24T19:45:46.945Z,13.22
2024-04-24T19:48:15.445Z,13.24
2024-04-24T19:50:43.211Z,13.24
2024-04-24T19:53:10.962Z,13.20
2024-04-24T19:55:38.689Z,13.14
2024-04-24T19:58:06.289Z,13.10
2024-04-24T20:00:33.844Z,13.07
2024-04-24T20:03:01.889Z,13.06
2024-04-24T20:05:31.120Z,13.02
2024-04-24T20:07:58.576Z,13.00
2024-04-24T20:10:26.135Z,12.99
2024-04-24T20:12:53.668Z,12.97
2024-04-24T20:15:21.242Z,12.96
2024-04-24T20:17:48.921Z,12.96
2024-04-24T20:20:16.552Z,12.87
2024-04-24T20:22:45.339Z,12.80
2024-04-24T20:25:13.040Z,12.75
2024-04-24T20:27:40.444Z,12.71
2024-04-24T20:30:08.666Z,12.70
2024-04-24T20:32:36.476Z,12.69
2024-04-24T20:35:04.780Z,12.69
2024-04-24T20:37:32.456Z,12.66
2024-04-24T20:39:59.826Z,12.59
2024-04-24T20:42:27.449Z,12.53
2024-04-24T20:44:56.807Z,12.48
2024-04-24T20:47:24.428Z,12.46
2024-04-24T20:49:51.844Z,12.44
2024-04-24T20:52:19.289Z,12.43
2024-04-24T20:54:46.843Z,12.46
2024-04-24T20:57:14.236Z,12.46
2024-04-24T20:59:41.886Z,12.46
2024-04-24T21:02:11.291Z,12.44
2024-04-24T21:04:39.088Z,12.45
2024-04-24T21:07:06.629Z,12.45
2024-04-24T21:09:35.860Z,12.43
2024-04-24T21:12:03.964Z,12.43
2024-04-24T21:14:31.943Z,12.43
2024-04-24T21:16:59.671Z,12.39
2024-04-24T21:19:27.032Z,12.33
2024-04-24T21:21:54.637Z,12.31
2024-04-24T21:24:22.224Z,12.32
2024-04-24T21:26:50.386Z,12.29
2024-04-24T21:29:18.099Z,12.24
2024-04-24T21:31:46.640Z,12.24
2024-04-24T21:34:14.215Z,12.27
2024-04-24T21:36:41.826Z,12.30
2024-04-24T21:39:11.200Z,12.30
2024-04-24T21:41:38.862Z,12.32
2024-04-24T21:44:06.567Z,12.33
2024-04-24T21:46:34.264Z,12.33
2024-04-24T21:49:01.830Z,12.32
2024-04-24T21:51:29.446Z,12.33
2024-04-24T21:53:58.362Z,12.30
2024-04-24T21:56:26.145Z,12.28
2024-04-24T21:58:55.012Z,12.26
2024-04-24T22:01:22.649Z,12.23
2024-04-24T22:03:50.173Z,12.21
2024-04-24T22:06:20.887Z,12.19
2024-04-24T22:08:48.468Z,12.16
2024-04-24T22:11:16.047Z,12.14
2024-04-24T22:13:43.831Z,12.11
2024-04-24T22:16:12.665Z,12.08
2024-04-24T22:18:40.961Z,12.06
2024-04-24T22:21:08.685Z,12.03
2024-04-24T22:23:36.379Z,12.01
2024-04-24T22:26:04.130Z,11.96
2024-04-24T22:28:31.760Z,11.94
2024-04-24T22:30:59.128Z,11.88
2024-04-24T22:33:26.627Z,11.84
2024-04-24T22:35:54.180Z,11.80
2024-04-24T22:38:21.898Z,11.75
2024-04-24T22:40:49.709Z,11.70
2024-04-24T22:43:17.059Z,11.66
2024-04-24T22:45:44.650Z,11.60
2024-04-24T22:48:12.233Z,11.55
2024-04-24T22:50:40.243Z,11.49
2024-04-24T22:53:09.630Z,11.46
2024-04-24T22:55:37.286Z,11.40
2024-04-24T22:58:05.091Z,11.36
2024-04-24T23:00:32.732Z,11.35
2024-04-24T23:03:00.295Z,11.31
2024-04-24T23:05:27.988Z,11.27
2024-04-24T23:07:55.740Z,11.22
2024-04-24T23:10:23.380Z,11.17
2024-04-24T23:12:50.953Z,11.13
2024-04-24T23:15:18.442Z,11.07
2024-04-24T23:17:46.266Z,11.03
2024-04-24T23:20:14.121Z,10.98
2024-04-24T23:22:41.605Z,10.94
2024-04-24T23:25:09.000Z,10.90
2024-04-24T23:27:36.402Z,10.87
2024-04-24T23:30:04.844Z,10.86
2024-04-24T23:32:32.656Z,10.81
2024-04-24T23:35:00.368Z,10.75
2024-04-24T23:37:27.767Z,10.69
2024-04-24T23:39:55.305Z,10.66
2024-04-24T23:42:22.857Z,10.65
2024-04-24T23:44:50.405Z,10.67
2024-04-24T23:47:17.933Z,10.67
2024-04-24T23:49:45.646Z,10.71
2024-04-24T23:52:12.967Z,10.75
2024-04-24T23:54:40.720Z,10.79
2024-04-24T23:57:08.254Z,10.82
2024-04-24T23:59:35.995Z,10.87
